メインページ
METAR-TAF:

METAR-TAF

空港 :

マルティニーク・エメ・セゼール国際空港

フォール=ド=フランス, マルティニーク

緯度: 14-36N, 経度: 061-00W, 海抜: 5m

現時点の気象観測

当レポートは10分前の02:30(UTC)に作成
東/南東の風 10kt
気温 26°C
湿度 74%
気圧 1019 hPa
視程10km以上
高度2600ftの雲はほとんどない
高度3100ftの雲は散在している

METAR: TFFF 150230Z AUTO 11010KT 9999 FEW026 SCT031 26/21 Q1019

時間: 22:40 (02:40 UTC)

予報

当レポートは21時間40分前の05:00(UTC)に作成
予報は13日の 06時(UTC)から 14日の 06時(UTC)まで有効
東/南東の風 12kt
視程10km以上
高度3000ftの雲は散在している
高度3500ftの千切れ雲あり
13日の 06時(UTC)から 13日の 09時(UTC)まで一時的に
視程: 4000m
高度1800ftの千切れ雲あり, 塔状積雲.
にわか雨
14日の 00時(UTC)から 14日の 06時(UTC)まで一時的に
視程: 4000m
高度1800ftの千切れ雲あり, 塔状積雲.
にわか雨

TAF: TFFF 130500Z 1306/1406 11012KT 9999 SCT030 BKN035 TEMPO 1306/1309 4000 SHRA BKN018TCU TEMPO 1400/1406 4000 SHRA BKN018TCU

4,000以上の空港の気象観測と天気予報(METAR報とTAF報)

利用可能な観測所は地図上に黄色い丸と赤い丸で示す。

丸の上にカーソルを重ねると観測所名を参照できる。

次にクリックすると気象観測と天気予報を参照できる。

マップの切り替え:黒色「×」印の緑ボタンをクリックして拡大、「-」印の緑ボタンをクリックして縮小、緑色の三角印をクリックして隣りの地図に切り替え


METAR-TAF: